Time;durP1;ratioP1;P1;durP2;ratioP2;P2;SDS_P1;SDS_P2;PMS_P1;PMS_P2;Temp;Humidity;BMP_temperature;BMP_pressure;BME280_temperature;BME280_humidity;BME280_pressure;Samples;Min_cycle;Max_cycle;Signal;HPM_P1;HPM_P2
2021/03/28 00:01:02;;;;;;;46.65;22.07;;;;;;;1.45;69.78;100966.77;1829251;78;21082;-76
2021/03/28 00:03:41;;;;;;;42.67;21.23;;;;;;;1.44;70.38;100961.98;1800106;78;21511;-73
2021/03/28 00:06:25;;;;;;;37.03;19.47;;;;;;;1.41;70.23;100968.44;1800483;79;21107;-74
2021/03/28 00:09:27;;;;;;;38.80;19.87;;;;;;;1.38;69.96;100959.33;1799665;79;21097;-74
2021/03/28 00:12:32;;;;;;;36.70;19.90;;;;;;;1.33;69.13;100966.15;1808518;79;21559;-75
2021/03/28 00:15:13;;;;;;;43.95;20.90;;;;;;;1.28;68.83;100966.52;1797124;79;21135;-75
2021/03/28 00:17:55;;;;;;;40.95;19.98;;;;;;;1.20;68.76;100965.55;1724309;79;21119;-75
2021/03/28 00:20:27;;;;;;;37.85;20.23;;;;;;;1.15;68.77;100962.89;1711691;83;21124;-76
2021/03/28 00:23:23;;;;;;;33.08;17.25;;;;;;;1.11;68.48;100964.12;1732167;82;21121;-74
2021/03/28 00:25:57;;;;;;;31.77;17.67;;;;;;;1.08;68.63;100958.86;1735061;81;21115;-72
2021/03/28 00:28:41;;;;;;;27.35;15.30;;;;;;;1.03;69.08;100959.66;1732759;82;21110;-73
2021/03/28 00:31:29;;;;;;;45.50;20.68;;;;;;;1.00;69.17;100961.35;1731755;82;21099;-72
2021/03/28 00:34:26;;;;;;;43.25;20.72;;;;;;;0.96;69.17;100965.61;1736536;80;21178;-72
2021/03/28 00:37:01;;;;;;;43.30;20.02;;;;;;;0.93;69.65;100968.59;1727804;82;21154;-72
2021/03/28 00:39:58;;;;;;;38.58;19.65;;;;;;;0.91;69.92;100970.28;1750736;82;21122;-72
2021/03/28 00:42:45;;;;;;;36.13;18.45;;;;;;;0.89;70.17;100968.95;1750896;82;21128;-70
2021/03/28 00:45:18;;;;;;;43.10;21.05;;;;;;;0.87;70.23;100971.08;1729678;82;21125;-70
2021/03/28 00:48:09;;;;;;;46.98;20.25;;;;;;;0.82;69.99;100968.41;1653448;80;21675;-73
2021/03/28 00:50:51;;;;;;;44.38;21.37;;;;;;;0.79;69.82;100968.38;1660700;86;21404;-73
2021/03/28 00:53:43;;;;;;;34.40;18.77;;;;;;;0.75;70.10;100968.73;1656638;85;21301;-74
2021/03/28 00:56:41;;;;;;;48.63;17.45;;;;;;;0.73;70.37;100974.75;1679386;84;21219;-79
2021/03/28 00:59:40;;;;;;;37.73;21.10;;;;;;;0.69;70.46;100967.75;1657671;84;21574;-80
2021/03/28 01:02:28;;;;;;;42.77;21.73;;;;;;;0.72;71.36;100971.72;1837341;76;22838;-71
2021/03/28 01:05:14;;;;;;;36.60;19.60;;;;;;;0.66;71.70;100972.90;1804839;78;22140;-71
2021/03/28 01:08:22;;;;;;;37.53;18.48;;;;;;;0.63;71.57;100977.19;1824285;77;21486;-72
2021/03/28 01:11:09;;;;;;;39.55;21.10;;;;;;;0.60;71.50;100974.55;1827093;78;21166;-71
2021/03/28 01:14:14;;;;;;;36.48;20.80;;;;;;;0.57;71.59;100971.88;1759336;81;21126;-71
2021/03/28 01:17:15;;;;;;;37.50;20.62;;;;;;;0.53;71.86;100967.52;1790689;80;21147;-71
2021/03/28 01:19:56;;;;;;;28.57;15.48;;;;;;;0.50;71.64;100966.14;1750510;81;21126;-72
2021/03/28 01:23:10;;;;;;;44.77;21.45;;;;;;;0.47;72.29;100962.22;1745686;81;21457;-72
2021/03/28 01:25:56;;;;;;;45.03;21.93;;;;;;;0.43;72.79;100951.34;1731684;82;21146;-72
2021/03/28 01:28:51;;;;;;;33.33;17.35;;;;;;;0.47;72.96;100959.63;1731851;82;21676;-72
2021/03/28 01:31:36;;;;;;;30.62;16.48;;;;;;;0.44;72.37;100955.70;1733020;82;21708;-74
2021/03/28 01:34:19;;;;;;;46.75;22.55;;;;;;;0.41;72.86;100956.92;1732956;82;21182;-74
2021/03/28 01:37:04;;;;;;;41.68;22.37;;;;;;;0.39;73.36;100956.02;1733226;81;21233;-74
2021/03/28 01:40:11;;;;;;;50.70;24.35;;;;;;;0.38;72.89;100963.35;1731612;82;21618;-76
2021/03/28 01:43:07;;;;;;;47.60;23.92;;;;;;;0.34;72.63;100960.25;1731441;82;21193;-76
2021/03/28 01:45:45;;;;;;;45.88;22.27;;;;;;;0.30;72.81;100961.93;1732658;81;21273;-75
2021/03/28 01:48:46;;;;;;;44.18;22.73;;;;;;;0.27;72.68;100958.39;1732871;82;21188;-78
2021/03/28 01:51:27;;;;;;;;;;;;;;;0.25;72.52;100958.36;1697382;83;21475;-69
2021/03/28 01:54:22;;;;;;;44.98;21.57;;;;;;;0.23;72.43;100959.17;1755756;81;20287;-70
2021/03/28 01:57:09;;;;;;;33.50;17.80;;;;;;;0.18;72.87;100959.99;1756011;81;21574;-69
2021/03/28 02:00:11;;;;;;;44.20;23.52;;;;;;;0.11;73.10;100942.56;1755762;81;21217;-70
2021/03/28 02:03:22;;;;;;;49.98;24.47;;;;;;;0.09;73.71;100949.45;1755686;81;21201;-69
2021/03/28 02:06:34;;;;;;;46.33;26.05;;;;;;;0.08;74.27;100950.28;1742488;80;21315;-76
2021/03/28 02:09:32;;;;;;;52.73;25.05;;;;;;;0.04;74.21;100948.48;1735822;82;21664;-75
2021/03/28 02:12:36;;;;;;;47.60;24.77;;;;;;;0.00;73.90;100950.58;1749632;82;21114;-75
2021/03/28 02:15:26;;;;;;;46.75;25.02;;;;;;;-0.02;73.78;100958.73;1739677;82;21199;-76
2021/03/28 02:18:18;;;;;;;45.88;24.15;;;;;;;-0.06;73.75;100952.61;1730628;82;21172;-76
2021/03/28 02:21:07;;;;;;;48.05;23.40;;;;;;;-0.11;73.52;100950.36;1778960;78;21372;-81
2021/03/28 02:23:55;;;;;;;59.10;27.80;;;;;;;-0.12;74.01;100958.09;1770021;80;21461;-82
2021/03/28 02:27:04;;;;;;;50.48;26.35;;;;;;;-0.14;74.59;100949.41;1685548;83;21082;-81
2021/03/28 02:29:55;;;;;;;48.63;22.15;;;;;;;-0.16;74.48;100959.77;1723623;83;21193;-78
2021/03/28 02:32:47;;;;;;;51.40;25.65;;;;;;;-0.20;74.72;100962.26;1793437;80;21143;-81
2021/03/28 02:36:00;;;;;;;45.78;22.85;;;;;;;-0.24;74.80;100964.77;1745593;78;21275;-73
2021/03/28 02:38:56;;;;;;;58.35;27.55;;;;;;;-0.29;74.79;100966.39;1701607;82;21240;-73
2021/03/28 02:41:58;;;;;;;42.65;22.35;;;;;;;-0.34;74.99;100961.55;1679193;84;21167;-73
2021/03/28 02:44:51;;;;;;;55.52;29.35;;;;;;;-0.33;75.23;100964.58;1691160;83;21200;-72
2021/03/28 02:47:59;;;;;;;60.92;28.55;;;;;;;-0.35;75.04;100960.21;1690859;84;21462;-72
2021/03/28 02:51:06;;;;;;;39.78;20.92;;;;;;;-0.38;74.80;100958.44;1731373;77;21621;-74
2021/03/28 02:54:32;;;;;;;61.83;29.37;;;;;;;-0.39;75.36;100960.98;1690054;83;21258;-72
2021/03/28 02:57:40;;;;;;;45.60;23.80;;;;;;;-0.42;75.63;100959.20;1711740;83;21239;-73
2021/03/28 03:00:29;;;;;;;51.13;24.40;;;;;;;-0.47;75.08;100955.66;1689624;84;21194;-73
2021/03/28 03:03:24;;;;;;;60.65;31.25;;;;;;;-0.50;75.32;100960.35;1685936;83;21206;-73
2021/03/28 03:06:01;;;;;;;51.13;24.27;;;;;;;-0.53;75.77;100967.16;1769268;79;21209;-76
2021/03/28 03:08:53;;;;;;;59.23;28.73;;;;;;;-0.55;75.89;100964.95;1763689;81;21155;-77
2021/03/28 03:11:53;;;;;;;53.87;25.43;;;;;;;-0.58;76.14;100973.95;1760863;81;21645;-77
2021/03/28 03:14:38;;;;;;;68.87;30.57;;;;;;;-0.62;76.29;100970.84;1664021;84;21649;-78
2021/03/28 03:17:46;;;;;;;74.90;36.15;;;;;;;-0.69;76.27;100972.02;1659534;86;21171;-77
2021/03/28 03:20:44;;;;;;;70.20;35.08;;;;;;;-0.69;76.41;100969.44;1693365;81;22373;-73
2021/03/28 03:23:53;;;;;;;58.02;29.87;;;;;;;-0.70;76.57;100970.26;1710236;83;21225;-75
2021/03/28 03:27:17;;;;;;;74.75;37.58;;;;;;;-0.71;76.79;100968.52;1710713;83;21189;-75
2021/03/28 03:30:27;;;;;;;48.83;24.47;;;;;;;-0.71;76.71;100968.95;1752614;81;21135;-76
2021/03/28 03:33:21;;;;;;;54.95;26.68;;;;;;;-0.70;77.10;100975.43;1736927;82;21580;-75
2021/03/28 03:36:12;;;;;;;64.37;31.10;;;;;;;-0.68;77.43;100969.88;1763773;78;21346;-70
2021/03/28 03:38:52;;;;;;;79.42;34.60;;;;;;;-0.68;77.57;100971.17;1787863;80;21188;-72
2021/03/28 03:41:49;;;;;;;49.88;24.80;;;;;;;-0.68;77.10;100976.77;1825118;78;21184;-71
2021/03/28 03:44:49;;;;;;;54.45;27.07;;;;;;;-0.70;76.83;100972.84;1783760;79;21176;-68
2021/03/28 03:47:29;;;;;;;57.10;27.90;;;;;;;-0.69;76.84;100970.73;1747232;82;21186;-73
2021/03/28 03:50:07;;;;;;;;;;;;;;;-0.67;77.27;100979.80;1766512;77;21393;-71
2021/03/28 03:52:47;;;;;;;58.85;30.48;;;;;;;-0.66;77.39;100978.55;1792615;79;20256;-72
2021/03/28 03:55:39;;;;;;;61.37;30.65;;;;;;;-0.66;77.50;100986.31;1780042;79;21158;-71
2021/03/28 03:58:27;;;;;;;44.58;22.70;;;;;;;-0.64;77.38;100983.34;1785268;79;21925;-72
2021/03/28 04:01:19;;;;;;;47.27;22.87;;;;;;;-0.64;76.75;100977.30;1811876;79;21130;-71
2021/03/28 04:04:08;;;;;;;;;;;;;;;-0.59;77.22;100979.98;1815248;79;21447;-72
2021/03/28 04:07:02;;;;;;;61.77;30.32;;;;;;;-0.56;77.71;100978.32;1773675;78;20258;-74
2021/03/28 04:09:54;;;;;;;63.60;30.50;;;;;;;-0.52;77.72;100977.98;1788074;79;21173;-79
2021/03/28 04:12:45;;;;;;;92.08;36.77;;;;;;;-0.46;77.35;100972.92;1811864;78;21275;-71
2021/03/28 04:15:18;;;;;;;93.75;41.18;;;;;;;-0.43;76.60;100976.89;1774519;80;21692;-71
2021/03/28 04:18:18;;;;;;;95.32;39.58;;;;;;;-0.35;76.36;100979.63;1779713;79;21194;-73
2021/03/28 04:21:00;;;;;;;91.10;40.75;;;;;;;-0.10;76.29;100983.59;1764533;78;21236;-72
2021/03/28 04:24:25;;;;;;;81.75;35.28;;;;;;;0.15;76.23;100989.70;1686010;85;21219;-74
2021/03/28 04:27:49;;;;;;;73.87;33.33;;;;;;;0.23;75.29;100983.78;1715277;82;21170;-76
2021/03/28 04:30:57;;;;;;;83.67;37.13;;;;;;;0.25;74.64;100980.81;1773531;80;21223;-78
2021/03/28 04:33:42;;;;;;;80.35;36.45;;;;;;;0.38;74.69;100988.84;1758807;81;21606;-77
2021/03/28 04:36:20;;;;;;;78.70;35.78;;;;;;;0.91;75.25;100995.79;1734524;80;21139;-71
2021/03/28 04:39:17;;;;;;;71.67;34.88;;;;;;;1.50;74.35;100992.36;1755133;79;21198;-71
2021/03/28 04:42:24;;;;;;;75.03;36.25;;;;;;;2.02;72.50;100999.93;1732777;81;21183;-72
2021/03/28 04:45:46;;;;;;;69.07;32.53;;;;;;;2.65;70.46;100997.58;1751941;81;21149;-69
2021/03/28 04:49:07;;;;;;;80.47;37.08;;;;;;;3.26;68.86;101005.42;1734486;82;21285;-71
2021/03/28 04:52:08;;;;;;;65.00;34.40;;;;;;;3.88;66.42;100995.78;1751637;79;21171;-76
2021/03/28 04:54:59;;;;;;;63.23;33.95;;;;;;;4.49;64.73;100993.80;1776594;79;21578;-75
2021/03/28 04:57:54;;;;;;;;;;;;;;;5.02;63.59;100999.94;1759597;80;21640;-74
2021/03/28 05:01:13;;;;;;;64.92;34.13;;;;;;;5.53;61.77;100998.56;1748659;82;20602;-72
2021/03/28 05:07:18;;;;;;;64.82;33.92;;;;;;;6.46;59.53;101000.78;1729773;81;21135;-73
2021/03/28 05:10:12;;;;;;;64.30;35.83;;;;;;;6.68;57.98;100995.42;1725595;81;21190;-76
2021/03/28 05:13:01;;;;;;;61.48;34.43;;;;;;;7.05;57.01;100999.06;1687844;84;21178;-74
2021/03/28 05:16:01;;;;;;;63.05;36.10;;;;;;;7.51;55.94;100994.69;1659270;84;21237;-75
2021/03/28 05:19:01;;;;;;;75.90;39.27;;;;;;;7.99;54.89;100985.83;1680311;84;21404;-76
2021/03/28 05:22:08;;;;;;;68.97;39.67;;;;;;;8.45;53.10;100993.11;1733531;79;21240;-72
2021/03/28 05:24:57;;;;;;;66.77;38.08;;;;;;;8.81;52.01;100989.48;1708611;80;21206;-72
2021/03/28 05:28:04;;;;;;;73.52;40.48;;;;;;;9.19;51.43;100997.19;1703406;82;21764;-73
2021/03/28 05:31:13;;;;;;;68.42;38.45;;;;;;;9.58;50.52;100989.47;1710942;83;22062;-72
2021/03/28 05:37:24;;;;;;;72.12;37.38;;;;;;;10.84;48.17;100987.62;1768620;74;28797;-74
2021/03/28 05:40:17;;;;;;;76.55;41.55;;;;;;;11.22;47.16;100988.41;1725246;82;21182;-75
2021/03/28 05:43:06;;;;;;;71.67;42.10;;;;;;;11.87;45.85;100982.70;1758224;80;21359;-73
2021/03/28 05:46:23;;;;;;;73.12;41.58;;;;;;;12.47;44.50;100988.86;1771802;80;21214;-73
2021/03/28 05:52:35;;;;;;;64.12;37.78;;;;;;;13.57;41.13;100987.88;1740639;79;75159;-71
2021/03/28 05:55:18;;;;;;;65.37;37.15;;;;;;;14.14;40.45;100988.88;1761381;80;21181;-72
2021/03/28 05:58:18;;;;;;;69.67;37.93;;;;;;;14.61;39.07;100994.16;1759328;79;22275;-72
2021/03/28 06:01:20;;;;;;;66.00;40.00;;;;;;;14.88;36.35;100998.34;1758497;81;21174;-74
2021/03/28 06:04:13;;;;;;;72.50;40.15;;;;;;;15.20;36.20;100997.42;1761838;81;21181;-73
2021/03/28 06:07:02;;;;;;;70.78;41.90;;;;;;;15.59;35.90;100995.78;1729268;81;21664;-72
2021/03/28 06:10:20;;;;;;;70.50;41.70;;;;;;;15.99;35.50;100988.70;1722048;80;21203;-72
2021/03/28 06:13:16;;;;;;;65.42;40.33;;;;;;;16.39;33.67;100997.48;1748972;78;22225;-71
2021/03/28 06:16:15;;;;;;;69.15;40.38;;;;;;;16.71;33.29;101002.59;1707932;83;21230;-71
2021/03/28 06:19:23;;;;;;;66.10;41.28;;;;;;;16.96;32.68;101005.80;1717980;83;21222;-70
2021/03/28 06:22:39;;;;;;;74.70;45.08;;;;;;;17.25;32.02;101006.59;1723137;82;21186;-69
2021/03/28 06:25:44;;;;;;;73.02;42.27;;;;;;;17.46;30.61;101004.62;1703840;82;21200;-73
2021/03/28 06:28:44;;;;;;;79.05;44.93;;;;;;;17.64;31.46;101006.80;1718587;81;22072;-73
2021/03/28 06:32:02;;;;;;;75.57;42.15;;;;;;;17.83;29.05;101002.27;1719502;81;21242;-70
2021/03/28 06:35:00;;;;;;;84.37;44.03;;;;;;;17.63;29.23;101003.28;1692563;81;21175;-71
2021/03/28 06:38:04;;;;;;;87.42;46.48;;;;;;;17.55;30.28;100998.81;1723485;81;21223;-71
2021/03/28 06:41:09;;;;;;;82.37;42.23;;;;;;;17.61;28.79;100997.17;1724147;81;21681;-71
2021/03/28 06:44:13;;;;;;;86.97;43.65;;;;;;;17.63;28.23;100995.77;1730573;81;21453;-71
2021/03/28 06:47:11;;;;;;;87.57;42.38;;;;;;;17.56;29.58;101000.08;1713690;81;21196;-72
2021/03/28 06:50:10;;;;;;;116.97;49.05;;;;;;;17.43;28.28;101004.31;1703583;82;21308;-72
2021/03/28 06:53:04;;;;;;;125.10;48.35;;;;;;;17.43;28.61;100992.81;1688801;81;21183;-72
2021/03/28 06:55:42;;;;;;;117.62;44.23;;;;;;;17.55;28.09;101002.36;1716204;81;21214;-71
2021/03/28 06:58:33;;;;;;;90.15;37.53;;;;;;;17.66;29.46;100993.79;1714721;82;21256;-71
2021/03/28 07:01:47;;;;;;;82.27;37.13;;;;;;;17.80;28.26;100996.58;1716627;83;21198;-71
2021/03/28 07:05:06;;;;;;;52.93;25.72;;;;;;;17.90;26.71;100997.45;1722765;81;21199;-72
2021/03/28 07:08:06;;;;;;;40.70;22.90;;;;;;;17.92;26.08;101000.89;1708383;81;21226;-71
2021/03/28 07:10:58;;;;;;;46.18;22.25;;;;;;;17.95;26.26;100988.28;1719742;81;21681;-72
2021/03/28 07:14:22;;;;;;;41.15;21.68;;;;;;;18.11;25.33;100988.30;1709393;82;21639;-72
2021/03/28 07:17:07;;;;;;;34.95;19.55;;;;;;;18.16;25.31;100990.23;1706794;83;21196;-71
2021/03/28 07:20:01;;;;;;;37.58;20.05;;;;;;;18.40;25.65;100992.48;1720483;78;21194;-74
2021/03/28 07:23:20;;;;;;;35.43;19.87;;;;;;;18.23;25.10;100982.77;1712432;81;21203;-75
2021/03/28 07:26:11;;;;;;;38.85;19.87;;;;;;;18.48;25.15;100978.25;1715136;83;21206;-75
2021/03/28 07:29:12;;;;;;;34.70;17.62;;;;;;;19.06;25.29;100977.58;1699623;83;21411;-73
2021/03/28 07:32:24;;;;;;;33.95;19.40;;;;;;;19.29;25.16;100973.53;1719272;83;28886;-75
2021/03/28 07:35:29;;;;;;;34.33;20.90;;;;;;;19.51;23.79;100970.92;1713620;77;43856;-72
2021/03/28 07:38:55;;;;;;;31.60;17.40;;;;;;;19.73;25.86;100969.14;1668947;84;21237;-71
2021/03/28 07:41:35;;;;;;;31.90;16.12;;;;;;;19.94;23.87;100972.77;1652881;85;21230;-70
2021/03/28 07:44:16;;;;;;;31.10;16.30;;;;;;;19.82;23.92;100971.23;1672308;83;21241;-71
2021/03/28 07:47:19;;;;;;;27.55;15.38;;;;;;;19.65;23.81;100971.41;1665372;84;21218;-71
2021/03/28 07:50:22;;;;;;;30.15;17.02;;;;;;;19.77;24.37;100968.48;1649771;82;21222;-74
2021/03/28 07:53:10;;;;;;;;;;;;;;;19.73;23.09;100969.14;1678655;84;21191;-77
2021/03/28 07:55:55;;;;;;;35.35;17.42;;;;;;;19.89;22.63;100967.22;1664302;84;20630;-78
2021/03/28 07:58:48;;;;;;;38.58;17.90;;;;;;;19.96;22.85;100964.17;1716723;82;22068;-75
2021/03/28 08:01:41;;;;;;;35.33;19.07;;;;;;;19.98;23.87;100956.92;1722514;82;21696;-77
2021/03/28 08:04:53;;;;;;;32.35;18.23;;;;;;;19.86;23.74;100958.07;1628914;82;21223;-69
2021/03/28 08:07:44;;;;;;;32.30;18.62;;;;;;;19.97;22.66;100952.52;1702285;83;21663;-70
2021/03/28 08:11:05;;;;;;;27.17;16.77;;;;;;;20.45;23.88;100957.89;1821814;78;22778;-70
2021/03/28 08:14:12;;;;;;;33.90;16.87;;;;;;;20.36;23.28;100951.80;1786015;79;21217;-71
2021/03/28 08:17:35;;;;;;;31.25;16.48;;;;;;;19.90;22.64;100954.73;1783071;79;21656;-70
2021/03/28 08:20:31;;;;;;;28.10;16.42;;;;;;;19.98;23.14;100951.58;1784175;79;21210;-70
2021/03/28 08:23:37;;;;;;;29.90;17.60;;;;;;;20.16;22.90;100946.39;1783866;79;21107;-70
2021/03/28 08:26:30;;;;;;;30.82;18.02;;;;;;;20.00;22.25;100944.31;1772093;79;21211;-70
2021/03/28 08:29:22;;;;;;;29.00;15.93;;;;;;;19.73;22.41;100946.42;1790205;79;21128;-70
2021/03/28 08:31:58;;;;;;;33.83;16.62;;;;;;;19.47;23.62;100942.19;1769366;79;21472;-73
2021/03/28 08:35:11;;;;;;;30.92;16.10;;;;;;;19.53;22.91;100941.42;1711458;81;21641;-74
2021/03/28 08:38:30;;;;;;;31.87;18.00;;;;;;;19.54;22.35;100941.82;1712027;83;21127;-72
2021/03/28 08:41:21;;;;;;;28.65;15.90;;;;;;;19.31;22.93;100934.73;1693559;84;21186;-72
2021/03/28 08:44:30;;;;;;;27.15;15.93;;;;;;;19.35;23.52;100926.92;1690554;84;21199;-72
2021/03/28 08:47:53;;;;;;;26.65;15.63;;;;;;;19.91;22.25;100921.70;1784367;79;21359;-71
2021/03/28 08:50:48;;;;;;;27.80;14.13;;;;;;;20.19;23.13;100918.10;1788008;79;21190;-70
2021/03/28 08:53:43;;;;;;;47.60;20.30;;;;;;;20.37;21.13;100919.21;1742323;80;21155;-72
2021/03/28 08:56:51;;;;;;;36.23;18.90;;;;;;;20.03;21.86;100920.90;1787677;79;21169;-72
2021/03/28 08:59:50;;;;;;;32.50;17.30;;;;;;;20.02;22.08;100921.02;1790250;79;21194;-72
2021/03/28 09:02:24;;;;;;;28.42;16.07;;;;;;;19.97;23.31;100918.64;1772745;80;21258;-76
2021/03/28 09:05:06;;;;;;;33.18;18.55;;;;;;;19.78;21.31;100920.27;1789794;78;21209;-77
2021/03/28 09:07:54;;;;;;;37.28;18.62;;;;;;;19.52;21.78;100927.70;1782512;79;21136;-78
2021/03/28 09:11:16;;;;;;;51.85;22.13;;;;;;;19.40;22.28;100921.30;1757993;79;21785;-74
2021/03/28 09:14:10;;;;;;;26.80;15.78;;;;;;;19.60;22.51;100924.05;1784149;79;21191;-75
2021/03/28 09:18:02;;;;;;;34.10;17.10;;;;;;;19.63;21.38;100914.53;1788081;79;22230;-74
2021/03/28 09:20:44;;;;;;;41.08;19.45;;;;;;;19.25;21.60;100912.39;1714923;81;21148;-74
2021/03/28 09:23:40;;;;;;;33.05;16.30;;;;;;;18.91;22.15;100913.11;1843675;76;23405;-74
2021/03/28 09:26:22;;;;;;;31.52;16.93;;;;;;;18.80;22.50;100919.08;1805540;78;21125;-73
2021/03/28 09:29:18;;;;;;;33.88;18.65;;;;;;;18.88;22.50;100911.09;1795892;78;21257;-67
2021/03/28 09:31:58;;;;;;;45.00;20.12;;;;;;;19.14;22.87;100901.50;1781973;77;21175;-76
2021/03/28 09:35:20;;;;;;;40.40;20.37;;;;;;;19.32;23.85;100900.38;1792580;78;21174;-72
2021/03/28 09:38:26;;;;;;;31.97;17.23;;;;;;;19.56;22.88;100893.16;1791340;78;21144;-73
2021/03/28 09:41:05;;;;;;;41.77;19.67;;;;;;;20.06;21.85;100903.80;1805038;78;21174;-72
2021/03/28 09:44:16;;;;;;;39.05;19.62;;;;;;;20.07;22.50;100904.20;1815695;77;21338;-76
2021/03/28 09:47:00;;;;;;;41.85;21.02;;;;;;;19.91;22.30;100898.48;1806426;77;21182;-76
2021/03/28 09:49:55;;;;;;;38.88;19.37;;;;;;;19.61;22.43;100900.41;1718461;81;21228;-73
2021/03/28 09:53:07;;;;;;;39.65;19.10;;;;;;;19.18;22.62;100889.69;1816668;77;21198;-70
2021/03/28 09:55:58;;;;;;;36.58;20.27;;;;;;;18.71;22.93;100901.39;1762374;80;21231;-73
2021/03/28 10:02:32;;;;;;;30.02;17.35;;;;;;;18.62;23.13;100896.96;1769075;79;21200;-74
2021/03/28 10:05:26;;;;;;;36.15;17.67;;;;;;;18.88;22.77;100873.23;1720025;81;21166;-73
2021/03/28 10:08:06;;;;;;;33.95;17.82;;;;;;;18.94;22.71;100876.03;1750393;80;21221;-76
2021/03/28 10:11:04;;;;;;;28.85;15.35;;;;;;;18.61;23.19;100878.36;1753598;80;21200;-73
2021/03/28 10:13:59;;;;;;;31.82;16.23;;;;;;;18.50;22.41;100884.34;1757248;80;21164;-75
2021/03/28 10:16:49;;;;;;;31.00;17.10;;;;;;;18.19;23.42;100884.76;1791317;77;21185;-71
2021/03/28 10:19:38;;;;;;;30.97;15.90;;;;;;;17.92;24.59;100871.66;1800709;78;21190;-71
2021/03/28 10:22:34;;;;;;;35.43;18.27;;;;;;;18.11;23.95;100863.03;1796498;79;21572;-71
2021/03/28 10:25:29;;;;;;;33.67;18.42;;;;;;;18.36;23.23;100858.97;1801192;79;21119;-72
2021/03/28 10:28:22;;;;;;;27.10;17.05;;;;;;;18.60;23.25;100865.98;1801415;79;22310;-71
2021/03/28 10:31:02;;;;;;;34.30;18.02;;;;;;;18.62;24.57;100858.28;1800788;79;21835;-71
2021/03/28 10:33:55;;;;;;;32.25;17.32;;;;;;;18.57;23.42;100864.84;1800881;79;21190;-72
2021/03/28 10:37:04;;;;;;;31.23;17.52;;;;;;;18.56;23.42;100858.62;1800492;79;21159;-71
2021/03/28 10:39:56;;;;;;;33.40;18.20;;;;;;;18.72;23.54;100855.06;1796329;79;21175;-71
2021/03/28 10:42:50;;;;;;;32.85;17.87;;;;;;;18.36;24.30;100857.15;1763123;81;21307;-71
2021/03/28 10:45:52;;;;;;;30.45;17.12;;;;;;;18.03;24.46;100855.92;1761387;81;21178;-71
2021/03/28 10:48:59;;;;;;;47.00;19.40;;;;;;;18.11;24.00;100853.70;1735783;75;21315;-79
2021/03/28 10:52:10;;;;;;;39.78;16.20;;;;;;;18.34;24.32;100852.86;1697578;84;22017;-78
2021/03/28 10:55:27;;;;;;;30.20;17.95;;;;;;;18.32;24.63;100847.60;1728406;82;21702;-81
2021/03/28 10:58:26;;;;;;;33.78;18.23;;;;;;;18.20;24.23;100844.32;1674164;83;25032;-79
2021/03/28 11:01:45;;;;;;;32.05;17.73;;;;;;;18.28;24.06;100849.20;1693865;83;21211;-78
2021/03/28 11:05:02;;;;;;;29.63;16.65;;;;;;;17.94;24.16;100841.78;1593286;86;21542;-74
2021/03/28 11:07:48;;;;;;;29.63;16.93;;;;;;;17.58;24.49;100846.87;1594876;88;21219;-74
2021/03/28 11:10:43;;;;;;;28.45;15.93;;;;;;;17.61;24.81;100848.02;1609728;88;21256;-74
2021/03/28 11:13:25;;;;;;;30.97;16.65;;;;;;;17.48;24.64;100846.97;1591166;88;21408;-75
2021/03/28 11:16:15;;;;;;;24.10;15.38;;;;;;;17.46;25.75;100839.53;1582448;89;21292;-74
2021/03/28 11:19:51;;;;;;;23.73;13.80;;;;;;;17.87;25.26;100836.42;1883740;74;22781;-72
2021/03/28 11:22:45;;;;;;;27.75;15.38;;;;;;;17.89;25.21;100836.72;1842868;76;21083;-72
2021/03/28 11:25:26;;;;;;;24.77;16.40;;;;;;;17.53;23.80;100835.59;1842487;75;21485;-71
2021/03/28 11:28:16;;;;;;;;;;;;;;;17.36;24.84;100835.19;1840825;75;21761;-72
2021/03/28 11:31:30;;;;;;;26.30;15.23;;;;;;;17.27;25.54;100836.53;1848064;76;20407;-71
2021/03/28 11:34:25;;;;;;;35.60;16.32;;;;;;;17.09;25.53;100823.77;1817103;75;21221;-74
2021/03/28 11:37:05;;;;;;;32.15;17.02;;;;;;;16.88;24.74;100836.84;1842399;75;21394;-72
2021/03/28 11:39:35;;;;;;;30.72;16.95;;;;;;;16.63;25.79;100837.20;1843012;75;21186;-74
2021/03/28 11:42:14;;;;;;;;;;;;;;;16.69;26.12;100842.22;1852925;75;21226;-71
2021/03/28 11:45:05;;;;;;;23.90;14.70;;;;;;;16.71;28.62;100820.41;1845800;75;20453;-72
2021/03/28 11:47:49;;;;;;;23.20;13.70;;;;;;;16.94;30.36;100832.06;1833585;75;28288;-71
2021/03/28 11:50:37;;;;;;;27.40;14.05;;;;;;;17.28;27.94;100819.64;1844348;75;21177;-71
2021/03/28 11:53:21;;;;;;;26.17;15.40;;;;;;;17.43;25.90;100814.41;1818895;76;21377;-75
2021/03/28 11:55:52;;;;;;;26.02;13.78;;;;;;;17.29;25.63;100808.03;1758534;79;21203;-74
2021/03/28 11:58:30;;;;;;;25.35;15.25;;;;;;;17.22;25.38;100811.12;1776841;79;21174;-75
2021/03/28 12:00:59;;;;;;;29.80;17.15;;;;;;;17.17;26.34;100808.23;1758412;79;21186;-75
2021/03/28 12:03:41;;;;;;;20.43;11.33;;;;;;;17.17;27.29;100806.05;1747011;78;55720;-74
2021/03/28 12:06:30;;;;;;;33.08;16.60;;;;;;;17.11;28.26;100811.68;1707109;82;22228;-74
2021/03/28 12:09:01;;;;;;;32.13;16.52;;;;;;;16.95;26.23;100807.64;1706847;79;21209;-72
2021/03/28 12:11:47;;;;;;;31.90;17.95;;;;;;;16.80;26.35;100813.31;1660316;84;21266;-71
2021/03/28 12:14:25;;;;;;;29.20;17.17;;;;;;;16.61;26.90;100797.86;1698096;83;21212;-72
2021/03/28 12:17:15;;;;;;;30.17;18.90;;;;;;;16.60;26.90;100801.48;1635013;84;21273;-72
2021/03/28 12:20:20;;;;;;;26.12;15.20;;;;;;;16.62;28.15;100798.28;1715091;81;21377;-72
2021/03/28 12:22:54;;;;;;;40.95;21.42;;;;;;;16.52;28.66;100785.45;1715571;80;21289;-74
2021/03/28 12:25:27;;;;;;;34.83;21.85;;;;;;;16.62;28.01;100784.50;1673687;82;21268;-72
2021/03/28 12:28:06;;;;;;;27.27;18.42;;;;;;;16.56;27.07;100781.70;1694265;81;21262;-75
2021/03/28 12:30:41;;;;;;;30.23;18.02;;;;;;;16.41;27.61;100770.52;1665613;81;21297;-73
2021/03/28 12:33:16;;;;;;;33.85;18.00;;;;;;;16.09;28.19;100776.98;1718745;81;21667;-74
2021/03/28 12:36:06;;;;;;;35.83;18.98;;;;;;;15.90;29.01;100776.18;1699929;82;21205;-74
2021/03/28 12:38:48;;;;;;;29.50;17.27;;;;;;;15.99;30.19;100769.09;1682175;79;21208;-71
2021/03/28 12:41:28;;;;;;;29.50;17.12;;;;;;;16.10;29.19;100773.41;1680160;82;21630;-72
2021/03/28 12:44:16;;;;;;;32.23;16.35;;;;;;;15.96;28.21;100775.86;1682260;82;21207;-74
2021/03/28 12:47:01;;;;;;;34.05;16.93;;;;;;;15.85;28.51;100764.89;1695004;83;21260;-73
2021/03/28 12:49:37;;;;;;;31.68;17.82;;;;;;;15.87;29.09;100764.36;1679003;83;21520;-72
2021/03/28 12:52:19;;;;;;;25.02;16.32;;;;;;;16.13;29.12;100768.41;1688402;82;21263;-72
2021/03/28 12:54:57;;;;;;;30.37;16.20;;;;;;;16.30;28.58;100756.91;1686145;82;21229;-71
2021/03/28 12:57:30;;;;;;;26.37;15.60;;;;;;;16.21;27.89;100753.39;1689164;83;21203;-72
2021/03/28 13:00:01;;;;;;;25.68;14.98;;;;;;;16.08;28.52;100761.98;1703043;82;21450;-69
2021/03/28 13:02:33;;;;;;;26.73;14.58;;;;;;;15.99;28.65;100758.46;1670304;82;21246;-72
2021/03/28 13:05:28;;;;;;;31.55;15.15;;;;;;;15.93;28.09;100760.94;1705437;82;21249;-71
2021/03/28 13:08:10;;;;;;;24.82;14.38;;;;;;;15.92;28.78;100753.06;1707749;82;21638;-73
2021/03/28 13:10:41;;;;;;;22.93;15.00;;;;;;;16.01;28.26;100763.23;1711179;82;21193;-71
2021/03/28 13:13:23;;;;;;;24.50;14.45;;;;;;;16.13;29.84;100753.31;1710593;82;22347;-71
2021/03/28 13:15:58;;;;;;;23.15;12.98;;;;;;;16.36;28.79;100751.30;1704110;82;21266;-69
2021/03/28 13:18:40;;;;;;;22.85;13.72;;;;;;;16.42;28.54;100754.95;1699421;82;21326;-68
2021/03/28 13:21:29;;;;;;;22.70;13.28;;;;;;;16.39;29.64;100751.12;1689709;83;21295;-71
2021/03/28 13:24:08;;;;;;;25.20;16.25;;;;;;;16.55;28.18;100745.87;1713953;82;21219;-70
2021/03/28 13:26:39;;;;;;;29.42;16.07;;;;;;;16.62;27.85;100746.42;1698530;82;21213;-71
2021/03/28 13:29:21;;;;;;;25.20;14.80;;;;;;;16.49;27.55;100753.69;1706990;81;21203;-71
2021/03/28 13:31:56;;;;;;;20.60;13.68;;;;;;;16.47;28.71;100747.62;1706235;81;21671;-71